Time;durP1;ratioP1;P1;durP2;ratioP2;P2;SDS_P1;SDS_P2;PMS_P1;PMS_P2;Temp;Humidity;BMP_temperature;BMP_pressure;BME280_temperature;BME280_humidity;BME280_pressure;Samples;Min_cycle;Max_cycle;Signal;HPM_P1;HPM_P2
2021/08/30 00:01:13;;;;;;;21.83;17.00;;;16.80;99.90;;;;;;5034282;28;20033;-58
2021/08/30 00:03:39;;;;;;;22.27;16.83;;;16.80;99.90;;;;;;5034513;28;20359;-58
2021/08/30 00:06:06;;;;;;;23.45;16.38;;;16.80;99.90;;;;;;5034407;28;20018;-58
2021/08/30 00:08:31;;;;;;;20.23;15.80;;;16.80;99.90;;;;;;5034224;28;20036;-58
2021/08/30 00:10:57;;;;;;;19.85;15.80;;;16.80;99.90;;;;;;5034379;28;20029;-59
2021/08/30 00:13:23;;;;;;;20.98;15.65;;;16.80;99.90;;;;;;5034370;28;20025;-58
2021/08/30 00:15:48;;;;;;;18.92;14.98;;;16.80;99.90;;;;;;5034489;28;20079;-59
2021/08/30 00:18:14;;;;;;;26.10;16.98;;;16.80;99.90;;;;;;5034255;28;20021;-59
2021/08/30 00:20:39;;;;;;;22.70;16.15;;;16.80;99.90;;;;;;5034003;28;20026;-59
2021/08/30 00:23:05;;;;;;;24.02;16.17;;;16.80;99.90;;;;;;5034117;28;20033;-59
2021/08/30 00:25:31;;;;;;;20.88;16.17;;;16.70;99.90;;;;;;5034148;28;20061;-59
2021/08/30 00:27:57;;;;;;;20.90;15.68;;;16.70;99.90;;;;;;5034017;28;20104;-59
2021/08/30 00:30:23;;;;;;;23.30;15.90;;;16.70;99.90;;;;;;5034005;28;20382;-59
2021/08/30 00:32:48;;;;;;;18.63;15.05;;;16.70;99.90;;;;;;5033847;28;20041;-59
2021/08/30 00:35:14;;;;;;;21.70;16.25;;;16.70;99.90;;;;;;5033998;28;20045;-58
2021/08/30 00:37:40;;;;;;;19.27;15.35;;;16.80;99.90;;;;;;5033618;28;20537;-59
2021/08/30 00:40:07;;;;;;;23.60;16.80;;;16.80;99.90;;;;;;5033995;28;20025;-59
2021/08/30 00:42:33;;;;;;;24.55;16.65;;;16.80;99.90;;;;;;5033552;28;20036;-59
2021/08/30 00:45:01;;;;;;;21.85;17.10;;;16.80;99.90;;;;;;5033908;28;20022;-58
2021/08/30 00:47:26;;;;;;;24.95;17.02;;;16.80;99.90;;;;;;5033688;28;20440;-58
2021/08/30 00:49:56;;;;;;;22.50;16.85;;;16.80;99.90;;;;;;5033612;28;20097;-59
2021/08/30 00:52:21;;;;;;;21.10;16.67;;;16.80;99.90;;;;;;5033507;28;20036;-58
2021/08/30 00:54:48;;;;;;;26.98;18.25;;;16.80;99.90;;;;;;5033573;28;20029;-58
2021/08/30 00:57:14;;;;;;;24.15;18.33;;;16.70;99.90;;;;;;5033559;28;20029;-58
2021/08/30 00:59:42;;;;;;;27.52;18.20;;;16.80;99.90;;;;;;5033607;28;20033;-58
2021/08/30 01:02:12;;;;;;;22.23;18.13;;;16.70;99.90;;;;;;5033294;28;20083;-58
2021/08/30 01:04:38;;;;;;;24.52;18.00;;;16.80;99.90;;;;;;5033487;28;20029;-59
2021/08/30 01:07:17;;;;;;;30.70;19.05;;;16.70;99.90;;;;;;5033277;28;20049;-58
2021/08/30 01:10:07;;;;;;;22.67;18.63;;;16.80;99.90;;;;;;5033160;28;20021;-58
2021/08/30 01:12:39;;;;;;;24.67;18.00;;;16.80;99.90;;;;;;5033320;28;20038;-58
2021/08/30 01:15:18;;;;;;;23.63;18.80;;;16.80;99.90;;;;;;5033175;28;20601;-58
2021/08/30 01:17:47;;;;;;;27.77;18.27;;;16.70;99.90;;;;;;5033081;28;20021;-59
2021/08/30 01:20:28;;;;;;;27.73;18.83;;;16.80;99.90;;;;;;5032877;28;20029;-58
2021/08/30 01:22:57;;;;;;;24.73;18.38;;;16.80;99.90;;;;;;5032981;28;20033;-58
2021/08/30 01:25:25;;;;;;;28.40;19.23;;;16.80;99.90;;;;;;5032991;28;20025;-58
2021/08/30 01:27:52;;;;;;;32.00;19.80;;;16.80;99.90;;;;;;5032737;28;20478;-58
2021/08/30 01:30:21;;;;;;;27.77;20.30;;;16.80;99.90;;;;;;5032931;28;20471;-59
2021/08/30 01:32:50;;;;;;;26.38;20.25;;;16.80;99.90;;;;;;5032741;28;20025;-59
2021/08/30 01:35:19;;;;;;;28.33;19.42;;;16.80;99.90;;;;;;5032725;28;20079;-59
2021/08/30 01:37:48;;;;;;;25.95;19.58;;;16.70;99.90;;;;;;5032696;28;20049;-59
2021/08/30 01:40:17;;;;;;;29.20;20.42;;;16.60;99.90;;;;;;5032664;28;20466;-59
2021/08/30 01:42:45;;;;;;;24.50;19.15;;;16.70;99.90;;;;;;5032483;28;20104;-59
2021/08/30 01:45:14;;;;;;;30.52;21.60;;;16.60;99.90;;;;;;5032638;28;20474;-59
2021/08/30 01:47:42;;;;;;;26.33;19.95;;;16.60;99.90;;;;;;5032541;28;20084;-59
2021/08/30 01:50:10;;;;;;;32.15;20.15;;;16.60;99.90;;;;;;5032448;28;20025;-59
2021/08/30 01:52:39;;;;;;;27.30;20.25;;;16.50;99.90;;;;;;5031843;28;20029;-59
2021/08/30 01:55:17;;;;;;;30.23;19.95;;;16.50;99.90;;;;;;5032431;28;20098;-59
2021/08/30 02:00:45;;;;;;;28.38;20.30;;;16.50;99.90;;;;;;5032546;28;20029;-59
2021/08/30 02:03:21;;;;;;;30.88;19.55;;;16.50;99.90;;;;;;5032104;28;20029;-59
2021/08/30 02:05:50;;;;;;;29.58;20.20;;;16.50;99.90;;;;;;5030943;28;20046;-59
2021/08/30 02:08:18;;;;;;;33.53;19.08;;;16.60;99.90;;;;;;5032218;28;20101;-59
2021/08/30 02:10:46;;;;;;;25.50;19.13;;;16.60;99.90;;;;;;5032200;28;20033;-59
2021/08/30 02:13:13;;;;;;;27.38;18.60;;;16.70;99.90;;;;;;5030880;28;20022;-59
2021/08/30 02:15:40;;;;;;;27.52;18.75;;;16.70;99.90;;;;;;5032004;28;20429;-59
2021/08/30 02:18:32;;;;;;;28.70;19.30;;;16.70;99.90;;;;;;5031894;28;20033;-59
2021/08/30 02:21:23;;;;;;;28.58;18.75;;;16.80;99.90;;;;;;5032161;28;20080;-59
2021/08/30 02:24:02;;;;;;;24.02;18.17;;;16.90;99.90;;;;;;5031973;28;20025;-59
2021/08/30 02:26:43;;;;;;;23.75;17.75;;;16.80;99.90;;;;;;5032011;28;20101;-59
2021/08/30 02:29:13;;;;;;;26.63;17.83;;;16.80;99.90;;;;;;5032048;28;20095;-58
2021/08/30 02:31:40;;;;;;;27.80;18.15;;;16.80;99.90;;;;;;5030644;28;20119;-59
2021/08/30 02:34:08;;;;;;;24.58;17.60;;;16.80;99.90;;;;;;5030586;28;20018;-59
2021/08/30 02:36:34;;;;;;;26.83;17.85;;;16.70;99.90;;;;;;5030349;28;20056;-59
2021/08/30 02:39:01;;;;;;;26.30;16.40;;;16.70;99.90;;;;;;5031856;28;20033;-59
2021/08/30 02:41:28;;;;;;;24.77;17.92;;;16.70;99.90;;;;;;5030477;28;20031;-59
2021/08/30 02:43:55;;;;;;;24.77;17.48;;;16.70;99.90;;;;;;5031808;28;20421;-59
2021/08/30 02:46:21;;;;;;;30.27;17.45;;;16.70;99.90;;;;;;5031662;28;20452;-59
2021/08/30 02:48:47;;;;;;;23.55;18.00;;;16.60;99.90;;;;;;5031725;28;20100;-59
2021/08/30 02:51:13;;;;;;;24.85;17.27;;;16.70;99.90;;;;;;5030262;28;20540;-59
2021/08/30 02:53:40;;;;;;;28.38;18.73;;;16.70;99.90;;;;;;5031537;28;20029;-59
2021/08/30 02:56:06;;;;;;;23.02;16.23;;;16.70;99.90;;;;;;5031708;28;20021;-59
2021/08/30 02:58:33;;;;;;;25.85;16.15;;;16.70;99.90;;;;;;5031833;28;20386;-59
2021/08/30 03:00:59;;;;;;;23.38;16.48;;;16.70;99.90;;;;;;5030255;28;20461;-59
2021/08/30 03:03:25;;;;;;;22.13;15.95;;;16.70;99.90;;;;;;5031772;28;20025;-59
2021/08/30 03:05:52;;;;;;;26.65;16.63;;;16.70;99.90;;;;;;5035628;28;20413;-59
2021/08/30 03:08:20;;;;;;;22.40;16.45;;;16.70;99.90;;;;;;5035436;28;20104;-59
2021/08/30 03:10:46;;;;;;;26.17;16.15;;;16.70;99.90;;;;;;5035441;28;20025;-59
2021/08/30 03:13:13;;;;;;;25.30;16.42;;;16.70;99.90;;;;;;5035701;28;20498;-59
2021/08/30 03:15:42;;;;;;;22.73;16.27;;;16.70;99.90;;;;;;5034167;28;20478;-59
2021/08/30 03:18:12;;;;;;;26.27;16.67;;;16.70;99.90;;;;;;5035443;28;20349;-59
2021/08/30 03:20:40;;;;;;;23.25;16.00;;;16.80;99.90;;;;;;5035601;28;20026;-59
2021/08/30 03:23:07;;;;;;;22.70;15.25;;;16.80;99.90;;;;;;5035283;28;20049;-59
2021/08/30 03:25:34;;;;;;;19.83;15.40;;;16.70;99.90;;;;;;5035523;28;20029;-59
2021/08/30 03:28:04;;;;;;;22.42;15.05;;;16.70;99.90;;;;;;5035475;28;20037;-59
2021/08/30 03:30:31;;;;;;;21.63;14.57;;;16.70;99.90;;;;;;5033968;28;20037;-59
2021/08/30 03:32:58;;;;;;;23.70;15.60;;;16.60;99.90;;;;;;5035175;28;20112;-59
2021/08/30 03:35:24;;;;;;;23.23;15.57;;;16.60;99.90;;;;;;5034876;28;20506;-59
2021/08/30 03:37:50;;;;;;;26.48;15.93;;;16.70;99.90;;;;;;5035080;28;20044;-59
2021/08/30 03:40:18;;;;;;;21.73;15.48;;;16.70;99.90;;;;;;5034863;28;20478;-59
2021/08/30 03:42:45;;;;;;;25.73;15.32;;;16.70;99.90;;;;;;5034797;28;20398;-59
2021/08/30 03:45:12;;;;;;;21.83;15.07;;;16.70;99.90;;;;;;5034939;28;20044;-59
2021/08/30 03:47:38;;;;;;;21.58;14.65;;;16.60;99.90;;;;;;5034858;28;20036;-58
2021/08/30 03:50:05;;;;;;;21.95;15.45;;;16.60;99.90;;;;;;5034752;28;20029;-58
2021/08/30 03:52:33;;;;;;;24.75;16.17;;;16.60;99.90;;;;;;5033437;28;20025;-58
2021/08/30 03:54:59;;;;;;;24.70;15.85;;;16.70;99.90;;;;;;5034716;28;20036;-59
2021/08/30 03:57:26;;;;;;;23.02;15.35;;;16.70;99.90;;;;;;5034548;28;20118;-59
2021/08/30 03:59:58;;;;;;;21.98;14.77;;;16.70;99.90;;;;;;5034564;28;20060;-59
2021/08/30 04:02:26;;;;;;;24.40;15.73;;;16.70;99.90;;;;;;5034437;28;20072;-59
2021/08/30 04:04:53;;;;;;;24.48;14.88;;;16.70;99.90;;;;;;5034458;28;20025;-59
2021/08/30 04:07:20;;;;;;;18.55;15.15;;;16.70;99.90;;;;;;5034441;28;20029;-59
2021/08/30 04:09:49;;;;;;;22.88;15.27;;;16.70;99.90;;;;;;5034353;28;20018;-59
2021/08/30 04:12:15;;;;;;;22.58;14.48;;;16.70;99.90;;;;;;5034393;28;20428;-60
2021/08/30 04:14:40;;;;;;;21.15;14.35;;;16.70;99.90;;;;;;5033016;28;20033;-58
2021/08/30 04:17:06;;;;;;;20.80;14.70;;;16.70;99.90;;;;;;5033545;28;20467;-58
2021/08/30 04:19:32;;;;;;;22.33;14.48;;;16.70;99.90;;;;;;5034151;28;20033;-58
2021/08/30 04:21:57;;;;;;;21.33;15.10;;;16.70;99.90;;;;;;5034041;28;20032;-58
2021/08/30 04:24:23;;;;;;;19.98;14.63;;;16.70;99.90;;;;;;5034259;28;20433;-58
2021/08/30 04:26:48;;;;;;;22.10;14.90;;;16.70;99.90;;;;;;5034128;28;20091;-58
2021/08/30 04:29:14;;;;;;;24.63;15.38;;;16.70;99.90;;;;;;5034443;28;20094;-58
2021/08/30 04:31:40;;;;;;;26.15;15.55;;;16.70;99.90;;;;;;5032627;28;20025;-58
2021/08/30 04:34:05;;;;;;;22.80;15.77;;;16.60;99.90;;;;;;5033922;28;20052;-58
2021/08/30 04:36:31;;;;;;;24.25;15.23;;;16.60;99.90;;;;;;5033934;28;20053;-58
2021/08/30 04:38:57;;;;;;;22.83;15.80;;;16.60;99.90;;;;;;5033893;28;20075;-58
2021/08/30 04:41:22;;;;;;;19.92;15.05;;;16.70;99.90;;;;;;5033859;28;20088;-59
2021/08/30 04:43:50;;;;;;;20.50;15.00;;;16.70;99.90;;;;;;5033895;28;20071;-58
2021/08/30 04:46:16;;;;;;;24.77;15.13;;;16.60;99.90;;;;;;5032406;28;20437;-59
2021/08/30 04:48:41;;;;;;;22.27;15.18;;;16.70;99.90;;;;;;5033566;28;20028;-59
2021/08/30 04:51:07;;;;;;;22.75;16.17;;;16.70;99.90;;;;;;5033608;28;20072;-59
2021/08/30 04:53:32;;;;;;;20.73;14.40;;;16.90;99.90;;;;;;5033620;28;20079;-59
2021/08/30 04:55:58;;;;;;;22.35;14.30;;;16.80;99.90;;;;;;5033525;28;20425;-59
2021/08/30 04:58:24;;;;;;;22.25;14.82;;;16.70;99.90;;;;;;5032176;28;20041;-59
2021/08/30 05:00:49;;;;;;;20.38;14.27;;;16.70;99.90;;;;;;5033361;28;20666;-59
2021/08/30 05:03:15;;;;;;;20.90;13.93;;;16.70;99.90;;;;;;5032218;28;20525;-59
2021/08/30 05:05:41;;;;;;;20.05;14.27;;;16.70;99.90;;;;;;5032100;28;20025;-58
2021/08/30 05:08:06;;;;;;;21.45;13.27;;;16.70;99.90;;;;;;5034431;28;20025;-58
2021/08/30 05:10:32;;;;;;;21.08;13.73;;;16.70;99.90;;;;;;5033230;28;20359;-58
2021/08/30 05:12:57;;;;;;;19.95;14.82;;;16.70;99.90;;;;;;5033329;28;20060;-58
2021/08/30 05:15:23;;;;;;;18.73;13.25;;;16.70;99.90;;;;;;5033127;28;20109;-58
2021/08/30 05:17:52;;;;;;;21.70;13.02;;;16.60;99.90;;;;;;5032964;28;20488;-58
2021/08/30 05:20:18;;;;;;;22.50;14.57;;;16.60;99.90;;;;;;5031782;28;20080;-59
2021/08/30 05:22:45;;;;;;;18.00;13.18;;;16.70;99.90;;;;;;5032933;28;20037;-58
2021/08/30 05:25:12;;;;;;;21.08;14.43;;;16.60;99.90;;;;;;5032866;28;20039;-58
2021/08/30 05:27:37;;;;;;;24.08;14.25;;;16.60;99.90;;;;;;5032182;28;20053;-58
2021/08/30 05:30:04;;;;;;;20.48;14.45;;;16.80;99.90;;;;;;5032895;28;20247;-59
2021/08/30 05:32:31;;;;;;;20.20;13.93;;;16.70;99.90;;;;;;5032730;28;20068;-59
2021/08/30 05:34:56;;;;;;;21.45;13.90;;;16.80;99.90;;;;;;5032854;28;20501;-59
2021/08/30 05:37:22;;;;;;;20.40;14.02;;;16.80;99.90;;;;;;5032645;28;20053;-59
2021/08/30 05:39:48;;;;;;;19.35;13.63;;;16.80;99.90;;;;;;5032854;28;20443;-59
2021/08/30 05:42:13;;;;;;;23.60;14.80;;;16.90;99.90;;;;;;5032559;28;20478;-59
2021/08/30 05:44:39;;;;;;;21.50;13.70;;;16.90;99.90;;;;;;5032566;28;20030;-59
2021/08/30 05:47:04;;;;;;;22.70;14.10;;;16.90;99.90;;;;;;5032536;28;20032;-59
2021/08/30 05:49:30;;;;;;;21.17;14.75;;;16.90;99.90;;;;;;5032671;28;20147;-59
2021/08/30 05:51:56;;;;;;;18.17;13.55;;;17.00;99.90;;;;;;5032657;28;20037;-59
2021/08/30 05:54:21;;;;;;;18.95;14.15;;;17.00;99.90;;;;;;5032495;28;20029;-59
2021/08/30 05:56:47;;;;;;;20.70;14.73;;;17.00;99.90;;;;;;5032224;28;20112;-59
2021/08/30 05:59:12;;;;;;;22.88;14.57;;;17.00;99.90;;;;;;5032254;28;20052;-59
2021/08/30 06:01:40;;;;;;;20.13;14.50;;;17.10;99.90;;;;;;5032184;28;20033;-59
2021/08/30 06:04:06;;;;;;;21.52;13.55;;;17.20;99.90;;;;;;5032220;28;20021;-59
2021/08/30 06:06:32;;;;;;;19.63;13.75;;;17.30;99.90;;;;;;5032391;28;20032;-59
2021/08/30 06:08:57;;;;;;;18.17;13.80;;;17.30;99.90;;;;;;5032206;28;20479;-59
2021/08/30 06:11:23;;;;;;;21.60;13.57;;;17.30;99.90;;;;;;5032128;28;20029;-59
2021/08/30 06:13:48;;;;;;;20.60;14.13;;;17.30;99.90;;;;;;5030951;28;20501;-59
2021/08/30 06:16:14;;;;;;;20.55;13.50;;;17.30;99.90;;;;;;5031140;28;20036;-59
2021/08/30 06:18:40;;;;;;;17.48;12.95;;;17.30;99.90;;;;;;5021864;28;20037;-59
2021/08/30 06:21:05;;;;;;;21.33;13.50;;;17.20;99.90;;;;;;5031868;28;20100;-59
2021/08/30 06:23:32;;;;;;;18.42;12.35;;;17.20;99.90;;;;;;5029951;28;20039;-59
2021/08/30 06:25:59;;;;;;;19.30;13.68;;;17.20;99.90;;;;;;5029800;28;20018;-59
2021/08/30 06:28:26;;;;;;;18.88;12.90;;;17.20;99.90;;;;;;5026478;28;20030;-59
2021/08/30 06:30:52;;;;;;;21.88;13.75;;;17.20;99.90;;;;;;5029466;28;20022;-59
2021/08/30 06:33:17;;;;;;;21.30;12.98;;;17.10;99.90;;;;;;5029495;28;20055;-59
2021/08/30 06:35:43;;;;;;;16.13;12.18;;;17.10;99.90;;;;;;5028891;28;20497;-59
2021/08/30 06:38:13;;;;;;;18.70;12.85;;;17.20;99.90;;;;;;5028838;28;21249;-58
2021/08/30 06:40:39;;;;;;;18.50;12.60;;;17.20;99.90;;;;;;5027602;28;20025;-58
2021/08/30 06:43:05;;;;;;;15.73;12.23;;;17.20;99.90;;;;;;5029918;28;20037;-58
2021/08/30 06:45:31;;;;;;;17.88;12.75;;;17.20;99.90;;;;;;5029836;28;20014;-58
2021/08/30 06:47:57;;;;;;;22.73;12.75;;;17.30;99.90;;;;;;5029053;28;20030;-58
2021/08/30 06:50:23;;;;;;;17.80;12.48;;;17.30;99.90;;;;;;5028509;28;20029;-59
2021/08/30 06:52:49;;;;;;;20.92;12.85;;;17.20;99.90;;;;;;5030483;28;20516;-59
2021/08/30 06:55:15;;;;;;;20.10;12.70;;;17.20;99.90;;;;;;5028980;28;20033;-58
2021/08/30 06:57:41;;;;;;;17.13;12.48;;;17.20;99.90;;;;;;5029040;28;20122;-58
2021/08/30 07:00:07;;;;;;;23.83;13.27;;;17.30;99.90;;;;;;5030522;28;20033;-58
2021/08/30 07:02:33;;;;;;;22.30;14.18;;;17.30;99.90;;;;;;5029074;28;20030;-58
2021/08/30 07:04:59;;;;;;;17.65;12.63;;;17.40;99.90;;;;;;5030806;28;20048;-58
2021/08/30 07:07:25;;;;;;;20.73;13.88;;;17.40;99.90;;;;;;5030654;28;20021;-58
2021/08/30 07:09:51;;;;;;;18.33;13.63;;;17.60;99.90;;;;;;5029601;28;20144;-58
2021/08/30 07:12:17;;;;;;;18.52;13.55;;;17.70;99.90;;;;;;5029633;28;20394;-58
2021/08/30 07:14:42;;;;;;;19.77;13.73;;;17.70;99.90;;;;;;5027344;28;20036;-59
2021/08/30 07:17:08;;;;;;;19.08;14.57;;;17.70;99.90;;;;;;5029563;28;20044;-59
2021/08/30 07:19:34;;;;;;;18.90;13.95;;;17.80;99.90;;;;;;5024595;28;20030;-59
2021/08/30 07:22:00;;;;;;;23.13;15.18;;;18.00;99.90;;;;;;5028361;28;20133;-58
2021/08/30 07:24:25;;;;;;;20.60;14.63;;;18.10;99.90;;;;;;5030731;28;20443;-58
2021/08/30 07:26:51;;;;;;;22.50;13.93;;;18.40;99.90;;;;;;5030474;28;20037;-58
2021/08/30 07:29:16;;;;;;;20.65;15.23;;;18.40;99.90;;;;;;5029646;28;20467;-58
2021/08/30 07:31:42;;;;;;;19.45;14.68;;;18.50;99.90;;;;;;5022060;28;20498;-58
2021/08/30 07:34:08;;;;;;;22.77;15.68;;;18.50;99.90;;;;;;5004128;28;20065;-58
2021/08/30 07:36:34;;;;;;;21.85;14.73;;;18.70;99.90;;;;;;5021175;28;20049;-58
2021/08/30 07:39:00;;;;;;;23.00;15.93;;;18.70;99.90;;;;;;5030437;28;20108;-58
2021/08/30 07:41:27;;;;;;;23.23;16.08;;;18.50;99.90;;;;;;5028347;28;20076;-58
2021/08/30 07:43:52;;;;;;;29.38;15.60;;;18.40;99.90;;;;;;5017095;28;20040;-58
2021/08/30 07:46:20;;;;;;;24.98;16.58;;;18.40;99.90;;;;;;5024665;28;20025;-58
2021/08/30 07:48:47;;;;;;;24.45;16.92;;;18.40;99.90;;;;;;5022382;28;20030;-58
2021/08/30 07:51:13;;;;;;;26.10;17.15;;;18.30;99.90;;;;;;5030321;28;20487;-59
2021/08/30 07:53:40;;;;;;;22.17;17.65;;;18.30;99.90;;;;;;5021870;28;20033;-59
2021/08/30 07:56:06;;;;;;;26.42;17.48;;;18.40;99.90;;;;;;5027513;28;20034;-59
2021/08/30 07:58:32;;;;;;;25.02;18.13;;;18.50;99.90;;;;;;5027564;28;20034;-59
2021/08/30 08:00:58;;;;;;;24.48;17.80;;;18.30;99.90;;;;;;5025943;28;20073;-59
2021/08/30 08:03:24;;;;;;;25.05;18.25;;;18.40;99.90;;;;;;5017201;28;20088;-59
2021/08/30 08:05:50;;;;;;;32.13;19.55;;;18.40;99.90;;;;;;5031665;28;20079;-59
2021/08/30 08:08:15;;;;;;;32.00;19.60;;;18.60;99.90;;;;;;5027841;28;20033;-59
2021/08/30 08:10:42;;;;;;;34.42;20.63;;;18.60;99.90;;;;;;5033007;28;20022;-59
2021/08/30 08:13:08;;;;;;;33.30;19.88;;;18.50;99.90;;;;;;5018445;28;20076;-59
2021/08/30 08:15:34;;;;;;;38.58;21.33;;;18.50;99.90;;;;;;5022486;28;20030;-59
2021/08/30 08:17:59;;;;;;;28.75;20.35;;;18.60;99.90;;;;;;5015759;28;20462;-59
2021/08/30 08:20:25;;;;;;;44.40;21.92;;;18.60;99.90;;;;;;5024067;28;20078;-59
2021/08/30 08:22:51;;;;;;;33.08;20.02;;;18.70;99.90;;;;;;5015280;28;20108;-59
2021/08/30 08:25:16;;;;;;;31.55;18.45;;;18.70;99.90;;;;;;5033782;28;20368;-59
2021/08/30 08:27:42;;;;;;;31.70;19.35;;;18.70;99.90;;;;;;5033471;28;20033;-59
2021/08/30 08:30:08;;;;;;;31.70;18.08;;;18.80;99.90;;;;;;5026501;28;20049;-59
2021/08/30 08:32:34;;;;;;;27.48;18.08;;;18.70;99.90;;;;;;5007423;28;20116;-59
2021/08/30 08:35:00;;;;;;;27.38;18.48;;;18.60;99.90;;;;;;5026389;28;20037;-59
2021/08/30 08:37:26;;;;;;;26.77;18.13;;;18.50;99.90;;;;;;5026114;28;20056;-59
2021/08/30 08:39:51;;;;;;;31.27;18.42;;;18.60;99.90;;;;;;5025610;28;20033;-59
2021/08/30 08:42:17;;;;;;;26.73;18.13;;;18.60;99.90;;;;;;5014070;28;20033;-59
2021/08/30 08:44:46;;;;;;;26.50;18.60;;;18.70;99.90;;;;;;5017774;28;20026;-59
2021/08/30 08:47:15;;;;;;;30.13;19.73;;;18.70;99.90;;;;;;5025912;28;20026;-59
2021/08/30 08:49:42;;;;;;;30.15;20.08;;;18.60;99.90;;;;;;5028698;28;20026;-59
2021/08/30 08:52:07;;;;;;;29.58;19.88;;;18.60;99.90;;;;;;5019494;28;20037;-59
2021/08/30 08:54:33;;;;;;;25.73;20.05;;;18.60;99.90;;;;;;5031969;28;20021;-59
2021/08/30 08:56:58;;;;;;;26.55;19.15;;;18.70;99.90;;;;;;5031265;28;20037;-59
2021/08/30 08:59:24;;;;;;;28.50;20.45;;;18.70;99.90;;;;;;5029117;28;20029;-58
2021/08/30 09:01:59;;;;;;;28.45;20.13;;;18.60;99.90;;;;;;5024507;28;20034;-58
2021/08/30 09:04:33;;;;;;;29.85;20.17;;;18.70;99.90;;;;;;5027279;28;20422;-59
2021/08/30 09:07:12;;;;;;;30.85;20.75;;;19.00;99.90;;;;;;5032405;28;20033;-59
2021/08/30 09:09:40;;;;;;;27.65;19.90;;;19.00;99.90;;;;;;5022057;28;20479;-59
2021/08/30 09:12:18;;;;;;;29.08;19.95;;;19.00;99.90;;;;;;5022568;28;20087;-59
2021/08/30 09:14:44;;;;;;;35.50;20.77;;;19.10;99.90;;;;;;5031981;28;20430;-58
2021/08/30 09:17:10;;;;;;;30.73;20.48;;;19.20;99.90;;;;;;5029836;28;20127;-59
2021/08/30 09:19:38;;;;;;;37.40;21.75;;;19.30;99.90;;;;;;5034966;28;20057;-59
2021/08/30 09:22:05;;;;;;;55.33;22.08;;;19.50;99.90;;;;;;5019528;28;20057;-59
2021/08/30 09:24:31;;;;;;;28.20;20.98;;;19.90;99.90;;;;;;5025344;28;20018;-59
2021/08/30 09:27:01;;;;;;;47.70;21.70;;;20.10;99.90;;;;;;5024666;28;20345;-59
2021/08/30 09:29:30;;;;;;;33.58;22.13;;;20.20;99.90;;;;;;5025922;28;20025;-59
2021/08/30 09:32:09;;;;;;;32.55;21.95;;;20.40;99.90;;;;;;5018589;28;20017;-59
2021/08/30 09:34:41;;;;;;;35.95;21.17;;;20.30;99.90;;;;;;5023278;28;20079;-59
2021/08/30 09:37:19;;;;;;;32.38;21.13;;;20.30;99.90;;;;;;5030573;28;20106;-59
2021/08/30 09:39:46;;;;;;;56.92;24.13;;;20.30;99.90;;;;;;5030472;28;20037;-59
2021/08/30 09:42:13;;;;;;;33.00;21.70;;;20.20;99.90;;;;;;5011399;28;20080;-58
2021/08/30 09:44:38;;;;;;;31.63;21.70;;;20.20;99.90;;;;;;5024515;28;20026;-58
2021/08/30 09:47:12;;;;;;;31.40;21.15;;;20.10;99.90;;;;;;5025641;28;20214;-59
2021/08/30 09:49:38;;;;;;;29.45;20.15;;;20.50;99.90;;;;;;5023721;28;20037;-59
2021/08/30 09:52:05;;;;;;;29.15;19.50;;;20.60;99.90;;;;;;5021488;28;20033;-58
2021/08/30 09:54:30;;;;;;;26.88;18.92;;;20.60;99.90;;;;;;5023901;28;20037;-59
2021/08/30 09:56:57;;;;;;;25.55;19.55;;;20.60;99.90;;;;;;5027819;28;20478;-59
2021/08/30 09:59:24;;;;;;;27.42;20.20;;;20.30;99.90;;;;;;5039451;28;20541;-59
2021/08/30 10:01:51;;;;;;;28.00;18.48;;;20.30;99.90;;;;;;5020907;28;20406;-59
2021/08/30 10:04:21;;;;;;;26.30;19.58;;;20.50;99.90;;;;;;5023420;28;20037;-59
2021/08/30 10:06:51;;;;;;;27.77;19.40;;;20.40;99.90;;;;;;5023480;28;20033;-59
2021/08/30 10:09:18;;;;;;;21.60;17.38;;;20.70;99.90;;;;;;5009964;28;20084;-59
2021/08/30 10:11:45;;;;;;;24.42;17.65;;;21.00;99.90;;;;;;5013131;28;20478;-59
2021/08/30 10:14:16;;;;;;;23.95;16.52;;;21.00;99.90;;;;;;5020887;28;20033;-58
2021/08/30 10:16:42;;;;;;;24.90;17.00;;;20.90;99.90;;;;;;5024003;28;20057;-58
2021/08/30 10:19:08;;;;;;;27.20;17.67;;;21.00;99.90;;;;;;5024412;28;20033;-58
2021/08/30 10:21:46;;;;;;;26.23;16.85;;;21.10;99.90;;;;;;5005593;28;20061;-59
2021/08/30 10:24:17;;;;;;;26.20;17.77;;;21.20;99.90;;;;;;5014855;28;20013;-59
2021/08/30 10:26:46;;;;;;;23.67;16.73;;;21.30;99.90;;;;;;5027633;28;20021;-59
2021/08/30 10:29:12;;;;;;;25.23;18.15;;;21.20;99.90;;;;;;5029158;28;20777;-60
2021/08/30 10:31:52;;;;;;;25.58;16.88;;;21.10;99.90;;;;;;5028185;28;20541;-59
2021/08/30 10:34:26;;;;;;;24.67;17.17;;;20.90;99.90;;;;;;5030056;28;20022;-59
2021/08/30 10:36:52;;;;;;;23.40;17.00;;;20.80;99.90;;;;;;5025028;28;20042;-59
2021/08/30 10:39:18;;;;;;;22.88;17.33;;;20.80;99.90;;;;;;5030547;28;20040;-59
2021/08/30 10:41:45;;;;;;;23.58;17.45;;;20.80;99.90;;;;;;5030428;28;20030;-59
2021/08/30 10:44:18;;;;;;;22.67;16.70;;;20.70;99.90;;;;;;5026548;28;20028;-59
2021/08/30 10:46:50;;;;;;;24.13;18.17;;;20.70;99.90;;;;;;5026727;28;20494;-59
2021/08/30 10:49:30;;;;;;;26.25;18.33;;;20.60;99.90;;;;;;5027349;28;20025;-59
2021/08/30 10:52:12;;;;;;;27.92;18.60;;;20.80;99.90;;;;;;5027082;28;20475;-59
2021/08/30 10:54:58;;;;;;;26.80;18.90;;;20.90;99.90;;;;;;5031475;28;20040;-59
2021/08/30 10:57:38;;;;;;;24.08;17.52;;;21.30;99.90;;;;;;5025033;28;20080;-59
2021/08/30 11:00:06;;;;;;;23.60;17.33;;;21.60;99.90;;;;;;5025030;28;20045;-59
2021/08/30 11:02:49;;;;;;;24.33;17.83;;;21.70;99.90;;;;;;5029386;28;20063;-59
2021/08/30 11:05:24;;;;;;;27.05;18.58;;;21.60;99.90;;;;;;5029159;28;20022;-60
2021/08/30 11:07:52;;;;;;;25.25;18.60;;;21.90;99.90;;;;;;5026522;28;20029;-59
2021/08/30 11:10:19;;;;;;;26.00;19.25;;;21.50;99.90;;;;;;5021071;28;20394;-59
2021/08/30 11:12:45;;;;;;;30.67;20.30;;;21.40;99.90;;;;;;5015474;28;20386;-59
2021/08/30 11:15:11;;;;;;;29.63;19.27;;;21.30;99.90;;;;;;5028105;28;20021;-59
2021/08/30 11:17:37;;;;;;;23.45;18.80;;;21.10;99.90;;;;;;5030131;28;20621;-59
2021/08/30 11:20:05;;;;;;;27.73;19.50;;;21.10;99.90;;;;;;5027980;28;20025;-59
2021/08/30 11:22:31;;;;;;;23.88;18.77;;;21.20;99.90;;;;;;5030494;28;20022;-59
2021/08/30 11:24:58;;;;;;;26.20;18.60;;;21.40;99.90;;;;;;5028909;28;20073;-59
2021/08/30 11:27:29;;;;;;;27.38;17.40;;;21.60;99.90;;;;;;5029782;28;20095;-60
2021/08/30 11:29:57;;;;;;;22.98;17.85;;;21.80;99.90;;;;;;5030032;28;20025;-59
2021/08/30 11:32:25;;;;;;;23.02;16.98;;;21.90;99.90;;;;;;5033097;28;20026;-59
2021/08/30 11:34:51;;;;;;;22.05;17.15;;;21.80;99.90;;;;;;5024375;28;20033;-59
2021/08/30 11:37:25;;;;;;;25.70;16.98;;;22.00;99.90;;;;;;5024029;28;20064;-59
2021/08/30 11:39:57;;;;;;;22.65;16.10;;;22.30;99.90;;;;;;5022873;28;20499;-59
2021/08/30 11:42:27;;;;;;;23.40;16.58;;;22.80;99.90;;;;;;5022915;28;20486;-59
2021/08/30 11:44:54;;;;;;;21.67;15.65;;;23.40;99.90;;;;;;5029209;28;20034;-59
2021/08/30 11:47:21;;;;;;;18.42;14.75;;;24.00;99.90;;;;;;5020385;28;20037;-59
2021/08/30 11:49:55;;;;;;;19.05;13.68;;;24.10;99.90;;;;;;5019655;28;20110;-59
2021/08/30 11:52:24;;;;;;;19.13;13.90;;;24.70;99.90;;;;;;5017179;28;20026;-59
2021/08/30 11:54:58;;;;;;;18.67;14.60;;;25.10;99.90;;;;;;5026878;28;20040;-59
2021/08/30 11:57:26;;;;;;;19.33;15.27;;;25.10;99.90;;;;;;5009485;28;20033;-59
2021/08/30 11:59:53;;;;;;;17.98;15.15;;;24.10;99.90;;;;;;5017464;28;20092;-59
2021/08/30 12:02:19;;;;;;;22.60;15.82;;;23.20;99.90;;;;;;5032199;28;20032;-59
2021/08/30 12:04:46;;;;;;;17.40;14.75;;;22.50;99.90;;;;;;5028311;28;20108;-59
2021/08/30 12:07:17;;;;;;;22.08;15.88;;;22.20;99.90;;;;;;5032526;28;20485;-59
2021/08/30 12:09:52;;;;;;;21.13;15.40;;;22.40;99.90;;;;;;5058236;28;20428;-59
2021/08/30 12:12:30;;;;;;;19.83;14.80;;;22.70;99.90;;;;;;5016913;28;20033;-59
2021/08/30 12:14:58;;;;;;;20.42;15.38;;;22.90;99.90;;;;;;5025441;28;20029;-58
2021/08/30 12:17:24;;;;;;;16.35;13.90;;;23.00;99.90;;;;;;5029969;28;20371;-57
2021/08/30 12:19:55;;;;;;;22.85;13.95;;;23.20;99.90;;;;;;5027725;28;20560;-57
2021/08/30 12:22:24;;;;;;;18.27;14.65;;;23.10;99.90;;;;;;5027903;28;20150;-57
2021/08/30 12:24:58;;;;;;;17.85;14.88;;;23.00;99.90;;;;;;5025657;28;20030;-57
2021/08/30 12:27:29;;;;;;;20.75;14.45;;;22.70;99.90;;;;;;5029042;28;20025;-55
2021/08/30 12:29:55;;;;;;;21.65;14.40;;;22.60;99.90;;;;;;5028570;28;20393;-56
2021/08/30 12:32:21;;;;;;;19.90;14.70;;;22.40;99.90;;;;;;5018337;28;20044;-56
2021/08/30 12:34:46;;;;;;;16.75;14.30;;;22.20;99.90;;;;;;5028459;28;20128;-56